KCVC Airport (Covington Muni) Information

FAA: CVC - ICAO: KCVC

KCVC Airport Location

State Georgia
County Newton
City Atlanta
KCVC Airport is 35 miles east-southeast of Atlanta, GA.
Latitude 33-37-56.0910N
Longitude 083-50-47.8280W
Elevation 819ft

KCVC Airport METARs

METAR KCVC 161815Z AUTO 08006KT 10SM RA SCT011 BKN021 OVC029 23/21 A3006 RMK AO2
Altimeter 30.06"
Temperature 23.0°C (73.4°F)
Wind 80° at 6KT
Clouds scattered at 1,100ft broken at 2,100ft overcast at 2,900ft
Visibility 10.0mi
Time observed: 2021-09-16T18:15:00Z

KCVC Airport Details

Status Operational
Activation April 1961
Ownership Public
Usage Public
Chart ATLANTA
ATC on-site No
Beacon schedule sunset-sunrise
Beacon color clear green

KCVC Airport Contacts

Owner CITY OF COVINGTON
Owner address CITY HALL, PO BOX 1527, COVINGTON, GA 30014
Owner phone 770-385-2000
Manager MARK JOHNSON
Manager address 425 14TH ST NW, ATLANTA, GA 30318
Manager phone 757-818-0774

KCVC Airport (Covington Muni) Radio Frequencies

KCVC (Airport) Radio Frequencies

UNICOM 123
Common traffic advisory frequency (CTAF) 123